Terminal Aerodrome Forecast
Issued by NWS

Home | Current Version | Previous Version | Text Only | Print | Product List | Glossary On
Versions: 1 2 3 4 5 6 7 8 9 10 11 12
000
FTUS44 KOUN 232326
TAFGAG
TAF
KGAG 232326Z 2400/2424 15018G25KT P6SM SCT050 OVC250
     FM241400 17016G24KT P6SM OVC050
      TEMPO 2414/2418 5SM -RA
     FM241800 18018G28KT 6SM -SHRA OVC040
      TEMPO 2420/2424 3SM TSRA BKN025CB=

USA.gov is the U.S. government's official web portal to all federal, state and local government web resources and services.